Ana Sayfa
METAR-TAF:

METAR-TAF

Havaalanları :

Pottstown Limerick Airport

Pottstown, Pensilvanya, Amerika Birleşik Devletleri

Enlem: 40-14-18N, Boylam: 075-33-26W, yükseklik: 89 m

Güncel hava durumu gözlemi

Rapor saat 00:54 UTC de 12 dakika önce yapıldı.
Rüzgar batı/güneybatıdan 3 kt
Sıcaklık 2°C
Nem 69%
Basınç 1011 hPa
Görüş mesafesi: 16.1 km
4300 ft yükseklikte çok bulutlu

METAR: KPTW 270054Z AUTO 24003KT 10SM OVC043 02/M03 A2985 RMK AO2 SLP108 T00221028

Saat: 20:06 (01:06 UTC)


TAF: eksik

4.000'den fazla havaalanı için hava durumu gözlemleri ve tahminleri (METAR ve TAF raporları).

Kullanılabilir istasyonlar harita üzerinde sarı ve kırmızı noktalarla gösterilir.

İstasyonun adını görmek için fareyi noktanın üzerinde gezdirin.

Sonrasında hava gözlem ve tahminlerini görmek için tıklayın.

Haritayı değiştirmek için: yaklaştırmak için siyah artı işaretli yeşil düğmeye ve uzaklaştırmak için de eksi işaretli düğmeye hızla tıklayın; bitişik haritalar için yeşil okları kullanın.


METAR-TAF: